createdAt,value
2023-04-22T00:01:11.492Z,15.40
2023-04-22T00:03:44.981Z,10.00
2023-04-22T00:06:17.664Z,8.80
2023-04-22T00:08:50.026Z,8.50
2023-04-22T00:11:22.665Z,9.80
2023-04-22T00:13:55.264Z,12.80
2023-04-22T00:16:27.626Z,12.10
2023-04-22T00:18:59.873Z,13.40
2023-04-22T00:21:32.603Z,12.70
2023-04-22T00:24:05.169Z,11.80
2023-04-22T00:26:37.828Z,13.00
2023-04-22T00:29:10.132Z,21.90
2023-04-22T00:31:42.489Z,44.00
2023-04-22T00:34:14.866Z,63.20
2023-04-22T00:36:47.398Z,63.60
2023-04-22T00:39:19.710Z,57.80
2023-04-22T00:41:52.319Z,53.80
2023-04-22T00:44:26.032Z,58.50
2023-04-22T00:46:58.527Z,45.50
2023-04-22T00:49:31.817Z,49.10
2023-04-22T00:52:04.216Z,52.70
2023-04-22T00:54:37.268Z,55.20
2023-04-22T00:57:09.533Z,59.00
2023-04-22T00:59:42.235Z,62.30
2023-04-22T01:02:15.796Z,53.40
2023-04-22T01:04:48.532Z,49.00
2023-04-22T01:07:21.826Z,63.30
2023-04-22T01:09:54.482Z,66.20
2023-04-22T01:12:26.781Z,64.60
2023-04-22T01:14:59.029Z,65.40
2023-04-22T01:17:33.960Z,60.40
2023-04-22T01:20:10.790Z,60.10
2023-04-22T01:22:46.682Z,62.00
2023-04-22T01:25:19.170Z,53.90
2023-04-22T01:27:52.207Z,57.50
2023-04-22T01:30:24.595Z,58.60
2023-04-22T01:32:57.249Z,59.60
2023-04-22T01:35:30.635Z,56.80
2023-04-22T01:38:02.954Z,58.10
2023-04-22T01:40:35.936Z,53.10
2023-04-22T01:43:08.264Z,41.30
2023-04-22T01:45:41.002Z,42.70
2023-04-22T01:48:13.428Z,45.60
2023-04-22T01:50:45.733Z,47.60
2023-04-22T01:53:19.384Z,42.90
2023-04-22T01:55:51.761Z,38.30
2023-04-22T01:58:24.160Z,39.50
2023-04-22T02:00:56.975Z,39.80
2023-04-22T02:03:29.604Z,54.10
2023-04-22T02:06:02.076Z,46.90
2023-04-22T02:08:35.185Z,50.40
2023-04-22T02:11:07.621Z,47.30
2023-04-22T02:13:41.670Z,54.00
2023-04-22T02:16:14.020Z,49.00
2023-04-22T02:18:47.229Z,57.10
2023-04-22T02:21:19.551Z,52.70
2023-04-22T02:23:51.879Z,55.00
2023-04-22T02:26:26.003Z,52.80
2023-04-22T02:28:58.387Z,59.00
2023-04-22T02:31:32.292Z,69.90
2023-04-22T02:34:05.011Z,66.60
2023-04-22T02:36:37.513Z,53.90
2023-04-22T02:39:11.732Z,29.00
2023-04-22T02:41:44.129Z,19.90
2023-04-22T02:44:17.428Z,14.10
2023-04-22T02:46:49.894Z,14.70
2023-04-22T02:49:23.559Z,16.50
2023-04-22T02:51:55.918Z,19.70
2023-04-22T02:54:28.242Z,17.60
2023-04-22T02:57:01.349Z,14.80
2023-04-22T02:59:33.823Z,14.10
2023-04-22T03:02:06.990Z,14.70
2023-04-22T03:05:03.920Z,11.40
2023-04-22T03:07:36.608Z,12.90
2023-04-22T03:10:10.738Z,13.10
2023-04-22T03:12:42.994Z,17.70
2023-04-22T03:15:18.784Z,16.20
2023-04-22T03:17:53.001Z,15.30
2023-04-22T03:20:26.023Z,15.00
2023-04-22T03:22:59.241Z,21.20
2023-04-22T03:25:31.833Z,22.90
2023-04-22T03:28:04.241Z,15.60
2023-04-22T03:30:36.682Z,13.40
2023-04-22T03:33:09.157Z,13.30
2023-04-22T03:35:48.680Z,12.00
2023-04-22T03:38:21.383Z,12.70
2023-04-22T03:40:54.211Z,12.60
2023-04-22T03:43:34.518Z,13.00
2023-04-22T03:46:11.024Z,11.50
2023-04-22T03:48:50.894Z,11.50
2023-04-22T03:51:30.243Z,12.50
2023-04-22T03:54:04.410Z,13.20
2023-04-22T03:56:37.997Z,13.40
2023-04-22T03:59:10.614Z,11.10
2023-04-22T04:01:43.516Z,13.70
2023-04-22T04:04:16.181Z,13.10
2023-04-22T04:06:56.522Z,15.20
2023-04-22T04:09:28.979Z,14.30
2023-04-22T04:12:03.121Z,15.10
2023-04-22T04:14:38.951Z,12.50
2023-04-22T04:17:14.164Z,10.10
2023-04-22T04:19:46.946Z,10.90
2023-04-22T04:22:19.718Z,13.40
2023-04-22T04:24:57.460Z,12.40
2023-04-22T04:27:33.027Z,8.90
2023-04-22T04:30:07.139Z,9.70
2023-04-22T04:32:45.929Z,12.20
2023-04-22T04:35:20.480Z,10.00
2023-04-22T04:37:56.907Z,9.20
2023-04-22T04:40:30.871Z,11.00
2023-04-22T04:43:26.303Z,11.60
2023-04-22T04:46:30.840Z,14.00
2023-04-22T04:49:04.202Z,12.10
2023-04-22T04:51:38.797Z,12.40
2023-04-22T04:54:11.132Z,10.40
2023-04-22T04:56:45.103Z,12.30
2023-04-22T04:59:17.457Z,11.50
2023-04-22T05:01:50.644Z,10.40
2023-04-22T05:04:23.426Z,11.00
2023-04-22T05:06:56.016Z,12.40
2023-04-22T05:09:28.728Z,11.40
2023-04-22T05:12:01.030Z,12.20
2023-04-22T05:14:33.452Z,11.90
2023-04-22T05:17:06.386Z,11.70
2023-04-22T05:19:39.979Z,14.80
2023-04-22T05:22:12.521Z,9.70
2023-04-22T05:24:45.295Z,9.90
2023-04-22T05:27:18.009Z,9.00
2023-04-22T05:29:50.867Z,12.20
2023-04-22T05:35:02.229Z,10.00
2023-04-22T05:37:38.670Z,10.70
2023-04-22T05:40:12.760Z,9.20
2023-04-22T05:42:45.604Z,9.90
2023-04-22T05:45:17.891Z,9.70
2023-04-22T05:47:50.656Z,7.90
2023-04-22T05:50:23.511Z,8.90
2023-04-22T05:53:03.509Z,10.60
2023-04-22T05:55:36.320Z,9.00
2023-04-22T05:58:12.069Z,14.90
2023-04-22T06:00:55.463Z,10.20
2023-04-22T06:03:48.249Z,8.30
2023-04-22T06:06:20.950Z,7.80
2023-04-22T06:08:53.395Z,6.20
2023-04-22T06:11:25.830Z,6.80
2023-04-22T06:13:58.185Z,6.10
2023-04-22T06:16:30.696Z,8.30
2023-04-22T06:19:02.960Z,8.70
2023-04-22T06:21:38.286Z,8.00
2023-04-22T06:24:11.217Z,8.90
2023-04-22T06:26:43.693Z,9.70
2023-04-22T06:29:16.427Z,37.70
2023-04-22T06:31:48.994Z,9.00
2023-04-22T06:34:23.780Z,5.70
2023-04-22T06:36:56.457Z,10.60
2023-04-22T06:39:28.868Z,5.10
2023-04-22T06:42:19.892Z,6.60
2023-04-22T06:45:15.064Z,15.40
2023-04-22T06:50:40.948Z,15.20
2023-04-22T06:53:13.280Z,16.80
2023-04-22T06:55:46.459Z,9.70
2023-04-22T06:58:19.001Z,8.80
2023-04-22T07:00:51.346Z,6.40
2023-04-22T07:03:23.913Z,14.80
2023-04-22T07:06:08.078Z,8.80
2023-04-22T07:08:40.646Z,5.50
2023-04-22T07:11:14.456Z,5.20
2023-04-22T07:14:03.048Z,6.60
2023-04-22T07:16:35.552Z,13.40
2023-04-22T07:19:08.045Z,8.10
2023-04-22T07:21:40.390Z,9.20
2023-04-22T07:24:13.401Z,4.80
2023-04-22T07:26:46.346Z,5.30
2023-04-22T07:29:18.704Z,6.90
2023-04-22T07:31:50.976Z,9.90
2023-04-22T07:34:23.340Z,3.90
2023-04-22T07:36:55.679Z,5.50
2023-04-22T07:39:28.135Z,4.50
2023-04-22T07:42:00.474Z,5.00
2023-04-22T07:44:32.946Z,10.50
2023-04-22T07:47:05.456Z,8.70
2023-04-22T07:49:38.211Z,4.40
2023-04-22T07:52:10.833Z,9.60
2023-04-22T07:54:43.140Z,15.80
2023-04-22T07:57:15.516Z,7.70
2023-04-22T07:59:47.824Z,5.40
2023-04-22T08:02:20.316Z,8.10
2023-04-22T08:04:52.911Z,10.70
2023-04-22T08:07:33.071Z,3.40
2023-04-22T08:10:07.569Z,3.40
2023-04-22T08:12:39.957Z,5.20
2023-04-22T08:15:13.592Z,4.60
2023-04-22T08:17:46.098Z,4.40
2023-04-22T08:20:18.677Z,5.20
2023-04-22T08:22:57.273Z,9.10
2023-04-22T08:25:30.774Z,5.00
2023-04-22T08:28:03.279Z,5.00
2023-04-22T08:30:35.768Z,5.50
2023-04-22T08:33:08.096Z,7.60
2023-04-22T08:35:40.555Z,4.40
2023-04-22T08:38:12.824Z,6.20
2023-04-22T08:40:45.620Z,3.30
2023-04-22T08:43:18.541Z,2.70
2023-04-22T08:45:51.730Z,15.10
2023-04-22T08:48:24.552Z,11.20
2023-04-22T08:50:57.727Z,3.90
2023-04-22T08:53:30.028Z,3.30
2023-04-22T08:56:02.912Z,4.50
2023-04-22T08:58:36.327Z,11.60
2023-04-22T09:01:10.444Z,4.60
2023-04-22T09:03:44.202Z,7.20
2023-04-22T09:06:18.071Z,10.10
2023-04-22T09:08:51.082Z,19.20
2023-04-22T09:11:23.620Z,5.10
2023-04-22T09:13:56.760Z,15.00
2023-04-22T09:16:30.976Z,5.10
2023-04-22T09:19:03.190Z,9.10
2023-04-22T09:21:36.478Z,5.50
2023-04-22T09:24:10.612Z,6.40
2023-04-22T09:26:44.746Z,16.60
2023-04-22T09:29:18.132Z,6.70
2023-04-22T09:31:53.230Z,4.10
2023-04-22T09:34:28.413Z,5.80
2023-04-22T09:37:00.708Z,4.30
2023-04-22T09:39:33.028Z,3.80
2023-04-22T09:42:05.576Z,3.20
2023-04-22T09:44:37.890Z,3.90
2023-04-22T09:47:12.091Z,6.80
2023-04-22T09:49:49.579Z,3.50
2023-04-22T09:52:27.563Z,11.60
2023-04-22T09:54:59.920Z,7.50
2023-04-22T09:57:32.379Z,5.60
2023-04-22T10:00:07.963Z,8.50
2023-04-22T10:02:40.359Z,4.60
2023-04-22T10:05:14.983Z,2.70
